createdAt,value
2023-01-28T00:10:40.216Z,22.27
2023-01-28T00:13:07.661Z,26.83
2023-01-28T00:15:34.434Z,23.30
2023-01-28T00:18:03.145Z,26.70
2023-01-28T00:20:29.701Z,22.80
2023-01-28T00:22:58.962Z,23.70
2023-01-28T00:45:08.752Z,30.88
2023-01-28T00:47:35.569Z,30.00
2023-01-28T00:50:02.415Z,29.65
2023-01-28T00:52:29.031Z,28.98
2023-01-28T00:54:57.402Z,29.98
2023-01-28T00:57:24.014Z,24.08
2023-01-28T01:34:27.982Z,22.05
2023-01-28T01:44:57.606Z,24.92
2023-01-28T01:47:31.952Z,24.10
2023-01-28T02:26:48.935Z,23.38
2023-01-28T02:29:38.990Z,24.80
2023-01-28T02:32:09.294Z,21.10
2023-01-28T02:34:44.518Z,27.10
2023-01-28T02:37:14.121Z,24.45
2023-01-28T02:39:45.655Z,23.48
2023-01-28T02:42:18.625Z,23.77
2023-01-28T02:47:31.979Z,24.85
2023-01-28T02:50:03.521Z,25.67
2023-01-28T02:53:05.552Z,28.30
2023-01-28T02:55:37.951Z,31.55
2023-01-28T02:58:23.277Z,27.67
2023-01-28T03:01:14.992Z,32.03
2023-01-28T03:03:50.337Z,26.80
2023-01-28T03:06:22.565Z,28.25
2023-01-28T03:37:22.313Z,31.00
2023-01-28T03:39:50.637Z,33.95
2023-01-28T03:42:18.817Z,31.70
2023-01-28T03:44:52.080Z,33.08
2023-01-28T03:47:20.584Z,33.67
2023-01-28T03:49:49.613Z,37.42
2023-01-28T03:52:29.936Z,34.92
2023-01-28T03:54:57.175Z,34.03
2023-01-28T03:57:26.111Z,32.22
2023-01-28T03:59:53.588Z,31.85
2023-01-28T04:02:22.177Z,30.88
2023-01-28T04:05:33.823Z,30.15
2023-01-28T04:53:02.027Z,33.58
2023-01-28T04:55:28.703Z,34.95
2023-01-28T04:57:57.542Z,37.88
2023-01-28T05:00:32.969Z,37.95
2023-01-28T05:03:36.384Z,36.20
2023-01-28T05:06:21.608Z,37.47
2023-01-28T05:08:48.272Z,37.80
2023-01-28T05:11:14.900Z,37.97
2023-01-28T05:13:41.590Z,37.00
2023-01-28T05:16:08.134Z,39.63
2023-01-28T05:18:34.677Z,36.88
2023-01-28T05:21:22.952Z,36.10
2023-01-28T05:23:49.500Z,38.63
2023-01-28T05:26:45.310Z,35.45
2023-01-28T05:29:11.844Z,37.03
2023-01-28T05:32:15.472Z,39.50
2023-01-28T05:35:29.844Z,38.88
2023-01-28T05:38:12.681Z,41.17
2023-01-28T05:40:40.169Z,38.92
2023-01-28T05:43:06.773Z,40.15
2023-01-28T05:45:33.427Z,40.00
2023-01-28T05:47:59.983Z,36.53
2023-01-28T05:50:26.587Z,41.45
2023-01-28T05:52:53.225Z,40.33
2023-01-28T05:55:22.196Z,40.72
2023-01-28T05:57:49.322Z,40.05
2023-01-28T06:00:16.988Z,41.47
2023-01-28T06:02:44.026Z,36.47
2023-01-28T06:05:10.954Z,36.67
2023-01-28T06:38:30.075Z,41.85
2023-01-28T06:40:58.244Z,41.00
2023-01-28T06:43:28.507Z,37.10
2023-01-28T06:45:55.443Z,39.35
2023-01-28T06:48:22.541Z,41.78
2023-01-28T06:50:49.579Z,37.72
2023-01-28T06:53:17.211Z,39.28
2023-01-28T06:55:43.803Z,39.95
2023-01-28T06:58:10.519Z,38.75
2023-01-28T07:00:37.862Z,40.78
2023-01-28T07:03:05.230Z,40.53
2023-01-28T07:05:31.846Z,43.17
2023-01-28T07:54:40.062Z,40.05
2023-01-28T07:57:09.984Z,39.08
2023-01-28T07:59:37.162Z,37.30
2023-01-28T08:02:04.174Z,36.20
2023-01-28T08:04:30.966Z,38.50
2023-01-28T08:06:57.791Z,35.50
2023-01-28T08:09:24.768Z,38.30
2023-01-28T08:11:51.521Z,33.03
2023-01-28T08:14:18.186Z,35.70
2023-01-28T08:16:44.756Z,34.10
2023-01-28T08:19:11.401Z,36.97
2023-01-28T08:21:38.010Z,38.10
2023-01-28T08:24:05.271Z,28.42
2023-01-28T08:26:40.885Z,24.25
2023-01-28T08:29:07.630Z,25.42
2023-01-28T08:31:43.562Z,22.05
2023-01-28T08:34:10.393Z,28.27
2023-01-28T08:36:36.959Z,25.58
2023-01-28T08:39:09.678Z,26.92
2023-01-28T08:41:36.233Z,28.70
2023-01-28T08:44:02.785Z,24.52
2023-01-28T08:46:32.065Z,22.55
2023-01-28T08:49:00.013Z,27.85
2023-01-28T08:51:26.581Z,29.12
2023-01-28T08:53:53.173Z,26.33
2023-01-28T08:56:22.991Z,28.75
2023-01-28T08:58:49.664Z,28.50
2023-01-28T09:01:16.252Z,26.23
2023-01-28T09:03:45.977Z,26.23
2023-01-28T09:06:12.555Z,24.05
2023-01-28T09:08:39.200Z,24.15
2023-01-28T09:11:05.839Z,25.62
2023-01-28T09:13:32.650Z,23.50
2023-01-28T09:15:59.318Z,23.00
2023-01-28T09:18:25.937Z,22.08
2023-01-28T09:20:52.675Z,25.05
2023-01-28T09:23:19.290Z,24.05
2023-01-28T09:25:45.903Z,25.85
2023-01-28T09:28:12.526Z,22.87
2023-01-28T09:30:39.786Z,22.80
2023-01-28T09:33:07.611Z,23.00
2023-01-28T09:35:34.288Z,23.25
2023-01-28T09:38:00.840Z,28.05
2023-01-28T09:40:30.017Z,28.73
2023-01-28T09:43:44.284Z,26.70
2023-01-28T09:46:13.439Z,27.90
2023-01-28T09:49:18.381Z,24.25
2023-01-28T09:51:52.489Z,25.42
2023-01-28T09:54:55.010Z,25.98
2023-01-28T09:57:45.775Z,27.73
2023-01-28T10:00:17.844Z,28.52
2023-01-28T10:03:07.712Z,25.77
2023-01-28T10:05:46.433Z,23.77
2023-01-28T10:08:30.896Z,25.75
2023-01-28T10:11:27.742Z,23.05
2023-01-28T10:14:03.838Z,25.23
2023-01-28T10:16:59.465Z,22.20
2023-01-28T10:19:32.745Z,26.73
2023-01-28T10:22:05.697Z,21.62
2023-01-28T10:24:36.049Z,24.98
2023-01-28T10:27:09.838Z,24.00
2023-01-28T10:29:36.907Z,22.87
2023-01-28T10:32:15.461Z,21.17
2023-01-28T10:34:42.136Z,20.30
2023-01-28T10:37:15.027Z,21.33
2023-01-28T10:39:42.665Z,23.85
2023-01-28T10:42:26.659Z,20.77
2023-01-28T10:44:56.890Z,21.62
2023-01-28T10:47:35.530Z,20.17
2023-01-28T10:50:04.919Z,19.35
2023-01-28T10:52:34.457Z,21.23
2023-01-28T10:55:06.067Z,20.67
2023-01-28T10:57:42.355Z,22.33
2023-01-28T11:00:34.186Z,20.33
2023-01-28T11:03:00.984Z,19.65
2023-01-28T11:05:29.731Z,20.85
2023-01-28T11:08:16.497Z,27.62
2023-01-28T11:10:44.432Z,23.05
2023-01-28T11:13:25.253Z,24.63
2023-01-28T11:16:13.989Z,21.20
2023-01-28T11:18:48.684Z,21.45
2023-01-28T11:21:26.994Z,23.65
2023-01-28T11:23:59.470Z,25.17
2023-01-28T11:26:38.931Z,24.00
2023-01-28T11:29:25.940Z,24.45
2023-01-28T11:32:01.323Z,23.45
2023-01-28T11:34:33.345Z,22.40
2023-01-28T11:37:12.447Z,22.13
2023-01-28T11:39:39.218Z,23.12
2023-01-28T11:42:22.939Z,22.83
2023-01-28T11:44:50.159Z,21.40
2023-01-28T11:47:16.649Z,22.33
2023-01-28T11:50:22.438Z,22.95
2023-01-28T11:53:07.759Z,22.52
2023-01-28T11:55:37.681Z,21.77
2023-01-28T11:58:30.138Z,25.23
2023-01-28T12:01:14.914Z,21.75
2023-01-28T12:03:44.563Z,27.55
2023-01-28T12:06:27.106Z,25.55
2023-01-28T12:09:24.739Z,24.80
2023-01-28T12:12:12.727Z,30.10
2023-01-28T12:15:07.502Z,24.40
2023-01-28T12:17:53.033Z,23.92
2023-01-28T12:20:37.541Z,24.52
2023-01-28T12:23:17.530Z,25.33
2023-01-28T12:26:04.672Z,24.25
2023-01-28T12:29:06.780Z,22.70
2023-01-28T12:32:13.288Z,25.08
2023-01-28T12:37:36.119Z,24.77
2023-01-28T12:40:28.663Z,18.35
2023-01-28T12:43:09.813Z,21.40
2023-01-28T12:45:45.466Z,19.42
2023-01-28T12:48:24.867Z,19.52
2023-01-28T12:51:12.960Z,19.33
2023-01-28T12:53:59.583Z,20.00
2023-01-28T12:56:31.948Z,19.95
2023-01-28T12:59:05.994Z,19.52
2023-01-28T13:01:44.248Z,21.25
2023-01-28T13:04:19.069Z,20.70
2023-01-28T13:07:02.090Z,17.80
2023-01-28T13:23:41.913Z,18.15
2023-01-28T13:31:42.926Z,18.70
2023-01-28T13:34:36.201Z,18.45
2023-01-28T13:37:34.265Z,16.42
2023-01-28T13:40:00.760Z,18.30
2023-01-28T13:42:29.802Z,18.52
2023-01-28T13:45:08.910Z,20.70
2023-01-28T14:04:07.985Z,22.00
2023-01-28T14:06:43.857Z,16.70
2023-01-28T14:09:44.809Z,18.50
2023-01-28T14:15:05.049Z,16.40
2023-01-28T14:17:54.059Z,17.87
2023-01-28T14:20:42.205Z,17.37
2023-01-28T14:26:18.065Z,25.83
2023-01-28T14:29:06.049Z,27.08
2023-01-28T14:31:42.065Z,28.70
2023-01-28T14:34:25.718Z,31.25
2023-01-28T14:36:56.362Z,31.77
2023-01-28T14:39:53.568Z,33.55
2023-01-28T14:42:23.586Z,29.60
2023-01-28T14:45:02.750Z,27.85
2023-01-28T14:48:16.171Z,27.80
2023-01-28T14:51:13.933Z,30.77
2023-01-28T14:56:43.423Z,27.77
2023-01-28T14:59:27.824Z,26.40
2023-01-28T15:07:27.996Z,31.92
2023-01-28T15:10:15.295Z,26.37
2023-01-28T15:12:45.136Z,28.27
2023-01-28T15:15:21.714Z,32.88
2023-01-28T15:17:49.196Z,33.97
2023-01-28T15:20:22.218Z,32.83
2023-01-28T15:25:22.981Z,31.85
2023-01-28T15:27:54.914Z,29.25
2023-01-28T15:30:27.546Z,30.23
2023-01-28T15:32:59.522Z,30.37
2023-01-28T15:35:26.553Z,30.60
2023-01-28T15:37:53.561Z,29.45
2023-01-28T15:40:22.030Z,30.50
2023-01-28T15:42:50.968Z,32.03
2023-01-28T15:45:20.210Z,28.15
2023-01-28T15:47:50.018Z,30.67
2023-01-28T15:50:25.919Z,31.17
2023-01-28T15:52:55.454Z,33.28
2023-01-28T15:55:35.568Z,37.42
2023-01-28T15:58:41.847Z,30.55
2023-01-28T16:01:08.639Z,31.52
2023-01-28T16:03:40.112Z,31.92
2023-01-28T16:06:10.060Z,33.78
2023-01-28T16:08:45.167Z,37.50
2023-01-28T16:11:11.903Z,30.20
2023-01-28T16:13:44.166Z,29.52
2023-01-28T16:16:19.456Z,30.90
2023-01-28T16:18:57.452Z,30.98
2023-01-28T16:21:27.838Z,34.67
2023-01-28T16:27:26.768Z,31.20
2023-01-28T16:40:45.211Z,107.78
2023-01-28T16:43:13.294Z,195.23
2023-01-28T16:45:46.053Z,88.22
2023-01-28T16:48:12.913Z,79.20
2023-01-28T16:50:47.592Z,78.43
2023-01-28T16:53:21.292Z,41.92
2023-01-28T16:55:55.058Z,53.33
2023-01-28T16:58:25.532Z,57.10
2023-01-28T17:00:53.265Z,51.97
2023-01-28T17:03:20.329Z,43.42
2023-01-28T17:05:47.029Z,61.63
2023-01-28T17:08:13.638Z,38.28
2023-01-28T17:10:40.342Z,55.90
2023-01-28T17:13:07.164Z,41.90
2023-01-28T17:15:36.154Z,40.72
2023-01-28T17:23:22.986Z,44.05
2023-01-28T17:25:50.189Z,40.12
2023-01-28T17:28:40.810Z,36.42
2023-01-28T17:31:12.769Z,45.05
2023-01-28T17:33:41.260Z,42.87
2023-01-28T17:36:09.243Z,36.88
2023-01-28T17:38:46.796Z,36.75
2023-01-28T17:41:14.229Z,37.28
2023-01-28T17:43:41.296Z,43.13
2023-01-28T17:46:14.920Z,32.78
2023-01-28T17:48:50.168Z,33.40
2023-01-28T17:51:17.647Z,35.08
2023-01-28T17:53:49.249Z,31.08
2023-01-28T17:56:22.142Z,35.97
2023-01-28T17:58:53.676Z,34.05
2023-01-28T18:01:21.680Z,37.63
2023-01-28T18:03:48.575Z,37.83
2023-01-28T18:06:15.846Z,36.42
2023-01-28T18:08:42.946Z,36.22
2023-01-28T18:11:11.542Z,34.92
2023-01-28T18:13:39.957Z,36.50
2023-01-28T18:16:08.443Z,37.03
2023-01-28T18:18:35.195Z,37.10
2023-01-28T18:21:06.485Z,34.88
2023-01-28T18:23:34.225Z,34.83
2023-01-28T18:26:04.406Z,37.63
2023-01-28T18:28:30.984Z,34.70
2023-01-28T18:31:05.371Z,36.30
2023-01-28T18:33:32.467Z,34.50
2023-01-28T18:36:06.803Z,32.03
2023-01-28T18:38:33.516Z,35.40
2023-01-28T18:41:01.463Z,29.52
2023-01-28T18:43:29.226Z,32.20
2023-01-28T18:45:55.832Z,29.67
2023-01-28T18:48:31.624Z,30.33
2023-01-28T18:50:58.499Z,28.40
2023-01-28T18:53:26.509Z,31.45
2023-01-28T18:55:53.738Z,27.95
2023-01-28T18:58:20.597Z,30.30
2023-01-28T19:01:11.701Z,29.00
2023-01-28T19:03:38.978Z,31.25
2023-01-28T19:06:07.592Z,29.42
2023-01-28T19:08:35.817Z,29.15
2023-01-28T19:11:02.675Z,30.58
2023-01-28T19:13:49.234Z,29.70
2023-01-28T19:16:18.871Z,29.02
2023-01-28T19:19:04.286Z,27.65
2023-01-28T19:21:37.650Z,28.98
2023-01-28T19:24:07.322Z,32.20
2023-01-28T19:26:38.394Z,27.13
2023-01-28T19:29:10.058Z,29.48
2023-01-28T19:31:38.484Z,30.50
2023-01-28T19:34:06.080Z,33.38
2023-01-28T19:36:34.623Z,32.28
2023-01-28T19:39:05.068Z,29.95
2023-01-28T19:41:33.582Z,28.83
2023-01-28T19:44:09.779Z,25.83
2023-01-28T19:46:37.854Z,27.40
2023-01-28T20:24:28.250Z,34.20
2023-01-28T20:26:54.875Z,31.98
2023-01-28T20:29:22.524Z,29.98
2023-01-28T20:32:08.881Z,30.37
2023-01-28T20:34:36.819Z,31.42
2023-01-28T20:37:03.906Z,32.20
2023-01-28T20:39:30.477Z,31.87
2023-01-28T20:41:57.109Z,31.87
2023-01-28T20:44:23.780Z,33.63
2023-01-28T20:46:50.354Z,31.05
2023-01-28T20:49:16.903Z,30.83
2023-01-28T20:51:44.206Z,32.25
2023-01-28T20:54:13.578Z,31.75
2023-01-28T20:56:41.119Z,32.10
2023-01-28T20:59:07.752Z,31.60
2023-01-28T21:01:35.717Z,31.83
2023-01-28T21:04:04.105Z,32.13
2023-01-28T21:06:31.044Z,35.35
2023-01-28T21:08:58.097Z,29.90
2023-01-28T21:11:26.195Z,33.28
2023-01-28T21:13:53.580Z,31.90
2023-01-28T21:16:20.251Z,32.90
2023-01-28T21:18:46.870Z,30.10
2023-01-28T21:21:24.576Z,29.80
2023-01-28T21:23:54.565Z,30.67
2023-01-28T21:26:21.828Z,28.73
2023-01-28T21:28:48.531Z,30.80
2023-01-28T21:31:17.730Z,31.70
2023-01-28T21:33:48.873Z,29.80
2023-01-28T21:36:16.482Z,33.45
2023-01-28T21:38:43.517Z,33.35
2023-01-28T21:41:10.811Z,32.88
2023-01-28T21:43:38.089Z,34.72
2023-01-28T21:46:04.977Z,35.15
2023-01-28T21:48:31.664Z,31.60
2023-01-28T21:51:23.753Z,32.50
2023-01-28T21:53:50.353Z,34.13
2023-01-28T21:56:17.151Z,32.58
2023-01-28T21:59:02.339Z,32.00
2023-01-28T22:01:28.960Z,32.10
2023-01-28T22:03:55.589Z,30.25
2023-01-28T22:06:22.147Z,31.98
2023-01-28T22:08:48.700Z,31.65
2023-01-28T22:11:15.334Z,33.40
2023-01-28T22:13:42.721Z,31.15
2023-01-28T22:16:09.345Z,31.60
2023-01-28T22:18:35.934Z,31.40
2023-01-28T22:21:12.995Z,29.83
2023-01-28T22:23:39.787Z,30.58
2023-01-28T22:26:06.735Z,35.15
2023-01-28T22:28:33.434Z,30.25
2023-01-28T22:31:12.076Z,32.47
2023-01-28T22:33:39.255Z,30.35
2023-01-28T22:36:08.665Z,33.38
2023-01-28T22:38:39.299Z,33.80
2023-01-28T22:41:13.413Z,35.53
2023-01-28T22:43:41.501Z,30.73
2023-01-28T22:46:09.835Z,31.33
2023-01-28T22:48:37.867Z,33.80
2023-01-28T22:51:07.796Z,29.15
2023-01-28T22:53:34.922Z,31.60
2023-01-28T22:56:02.629Z,31.75
2023-01-28T22:58:31.618Z,29.92
2023-01-28T23:00:58.458Z,31.77
2023-01-28T23:03:25.490Z,30.23
2023-01-28T23:05:52.309Z,33.55
2023-01-28T23:08:18.988Z,32.00
2023-01-28T23:32:49.691Z,35.05
2023-01-28T23:35:18.910Z,35.92
2023-01-28T23:37:46.131Z,35.90
2023-01-28T23:40:13.808Z,31.05
2023-01-28T23:42:41.752Z,30.73
2023-01-28T23:45:09.092Z,32.90
